Time;durP1;ratioP1;P1;durP2;ratioP2;P2;SDS_P1;SDS_P2;PMS_P1;PMS_P2;Temp;Humidity;BMP_temperature;BMP_pressure;BME280_temperature;BME280_humidity;BME280_pressure;Samples;Min_cycle;Max_cycle;Signal;HPM_P1;HPM_P2
2023/07/03 00:02:22;;;;;;;;;3.25;3.25;;;;;21.37;45.61;100589.69;5037895;28;45313;-69
2023/07/03 00:04:47;;;;;;;;;3.75;3.50;;;;;21.36;45.82;100588.00;5036537;28;45245;-68
2023/07/03 00:07:14;;;;;;;;;6.00;6.00;;;;;21.36;45.77;100604.06;5037572;28;45533;-73
2023/07/03 00:09:40;;;;;;;;;3.25;3.25;;;;;21.05;46.17;100547.81;5037010;28;45991;-69
2023/07/03 00:12:06;;;;;;;;;4.50;4.50;;;;;21.25;46.16;100588.91;5036057;28;45317;-73
2023/07/03 00:14:32;;;;;;;;;4.00;4.00;;;;;21.26;46.12;100598.63;5036836;28;45473;-69
2023/07/03 00:16:57;;;;;;;;;4.00;3.75;;;;;21.22;46.26;100591.03;5038298;28;45630;-69
2023/07/03 00:19:26;;;;;;;;;4.25;3.75;;;;;21.18;46.53;100593.09;5037057;28;45280;-69
2023/07/03 00:21:52;;;;;;;;;3.25;3.25;;;;;21.14;46.94;100597.84;5019684;28;45470;-70
2023/07/03 00:24:17;;;;;;;;;4.50;4.50;;;;;21.07;47.19;100596.66;5036167;28;45327;-66
2023/07/03 00:26:43;;;;;;;;;2.75;2.75;;;;;21.00;47.89;100591.00;5036124;28;45438;-68
2023/07/03 00:29:08;;;;;;;;;4.00;4.00;;;;;20.95;47.59;100587.00;5036492;28;45312;-67
2023/07/03 00:31:34;;;;;;;;;8.00;8.00;;;;;20.93;48.00;100592.50;5036238;28;45375;-67
2023/07/03 00:34:00;;;;;;;;;4.00;4.00;;;;;20.91;48.51;100585.56;5038308;28;45364;-76
2023/07/03 00:36:25;;;;;;;;;4.00;4.00;;;;;20.83;48.68;100579.03;5038460;28;45422;-73
2023/07/03 00:38:57;;;;;;;;;7.50;7.50;;;;;20.41;48.88;100510.31;5038278;28;45380;-72
2023/07/03 00:41:22;;;;;;;;;4.00;4.00;;;;;20.80;48.98;100578.47;5038309;28;45525;-72
2023/07/03 00:43:48;;;;;;;;;6.00;6.00;;;;;20.64;48.83;100542.28;5039392;28;45395;-77
2023/07/03 00:46:13;;;;;;;;;3.50;3.50;;;;;20.79;49.26;100566.91;5042764;28;45316;-67
2023/07/03 00:48:40;;;;;;;;;4.00;4.00;;;;;20.77;49.82;100568.84;5023907;28;46154;-73
2023/07/03 00:51:08;;;;;;;;;4.50;4.50;;;;;20.68;49.83;100569.59;5041347;28;45371;-70
2023/07/03 00:53:34;;;;;;;;;4.00;4.00;;;;;20.63;49.61;100558.47;5040668;28;45249;-66
2023/07/03 00:55:59;;;;;;;;;4.50;4.50;;;;;20.63;50.04;100559.28;5040912;28;45245;-77
2023/07/03 00:58:26;;;;;;;;;3.50;3.50;;;;;20.71;49.91;100570.22;5023600;28;46196;-66
2023/07/03 01:00:58;;;;;;;;;4.00;4.00;;;;;20.73;50.27;100575.41;5023560;28;45464;-66
2023/07/03 01:03:45;;;;;;;;;6.00;6.00;;;;;20.76;50.28;100568.97;5042671;28;45240;-73
2023/07/03 01:06:19;;;;;;;;;5.00;5.00;;;;;20.77;50.31;100563.50;5041858;28;45247;-72
2023/07/03 01:08:48;;;;;;;;;4.25;4.25;;;;;20.82;50.26;100558.63;5041202;28;46199;-75
2023/07/03 01:11:14;;;;;;;;;5.75;5.75;;;;;20.77;50.30;100558.16;5039978;28;45515;-75
2023/07/03 01:13:41;;;;;;;;;3.25;3.25;;;;;20.86;50.28;100570.78;5039938;28;45362;-71
2023/07/03 01:16:07;;;;;;;;;5.00;5.00;;;;;20.85;50.09;100562.91;5039017;28;45392;-68
2023/07/03 01:18:34;;;;;;;;;5.75;5.25;;;;;20.86;50.42;100564.59;5039730;28;45284;-71
2023/07/03 01:21:12;;;;;;;;;3.50;3.50;;;;;20.86;50.12;100568.09;5040916;28;45620;-69
2023/07/03 01:24:04;;;;;;;;;5.75;5.75;;;;;20.85;50.44;100561.06;5005920;28;45358;-71
2023/07/03 01:26:31;;;;;;;;;3.25;3.25;;;;;20.80;50.69;100575.81;5038941;28;45348;-70
2023/07/03 01:28:59;;;;;;;;;4.50;4.50;;;;;20.79;50.68;100571.44;5021347;28;46354;-68
2023/07/03 01:31:29;;;;;;;;;3.50;3.50;;;;;20.77;50.42;100566.16;5038763;28;45416;-68
2023/07/03 01:33:58;;;;;;;;;5.00;5.00;;;;;20.84;50.83;100567.38;5038162;28;45299;-66
2023/07/03 01:36:24;;;;;;;;;5.00;4.50;;;;;20.79;50.68;100563.41;5004041;28;45356;-69
2023/07/03 01:38:51;;;;;;;;;5.00;5.00;;;;;20.81;50.82;100564.97;5037824;28;46178;-68
2023/07/03 01:41:18;;;;;;;;;10.50;10.50;;;;;20.82;51.19;100568.50;5037799;28;45243;-67
2023/07/03 01:43:45;;;;;;;;;5.00;5.00;;;;;20.85;50.86;100573.59;5038841;28;45353;-66
2023/07/03 01:46:12;;;;;;;;;5.00;5.00;;;;;20.85;51.16;100569.06;5040641;28;45356;-72
2023/07/03 01:48:37;;;;;;;;;5.75;5.75;;;;;20.86;51.10;100569.94;5025470;28;46172;-68
2023/07/03 01:51:05;;;;;;;;;5.00;5.00;;;;;20.80;51.51;100568.63;5040642;28;45467;-74
2023/07/03 01:53:40;;;;;;;;;4.00;4.00;;;;;20.78;51.38;100567.91;5043229;28;45324;-67
2023/07/03 01:56:17;;;;;;;;;5.50;5.50;;;;;20.81;51.54;100562.28;5038020;28;45825;-67
2023/07/03 01:58:47;;;;;;;;;5.00;5.00;;;;;20.86;51.66;100572.59;5038143;28;46259;-66
2023/07/03 02:01:18;;;;;;;;;5.25;5.25;;;;;20.89;51.34;100574.16;5038093;28;45306;-67
2023/07/03 02:03:57;;;;;;;;;4.50;4.50;;;;;20.91;51.53;100564.19;5019546;28;45419;-64
2023/07/03 02:06:28;;;;;;;;;5.50;4.75;;;;;20.94;51.71;100564.78;5037814;28;45342;-65
2023/07/03 02:08:55;;;;;;;;;4.25;4.25;;;;;20.92;51.38;100574.75;5037972;28;46246;-67
2023/07/03 02:11:23;;;;;;;;;7.50;6.00;;;;;20.86;51.91;100557.41;5038749;28;45437;-70
2023/07/03 02:13:49;;;;;;;;;5.00;5.00;;;;;20.84;51.90;100555.84;5038698;28;45313;-67
2023/07/03 02:16:16;;;;;;;;;4.50;4.50;;;;;20.89;51.77;100567.00;5038954;28;45420;-71
2023/07/03 02:18:42;;;;;;;;;5.25;5.25;;;;;20.83;52.04;100563.00;5038319;28;46355;-70
2023/07/03 02:21:07;;;;;;;;;5.00;5.00;;;;;20.80;52.33;100565.09;5037598;28;45340;-67
2023/07/03 02:23:33;;;;;;;;;5.00;5.00;;;;;20.77;52.17;100560.81;5038663;28;45365;-73
2023/07/03 02:25:59;;;;;;;;;3.75;3.75;;;;;20.79;52.30;100556.22;5038792;28;45555;-66
2023/07/03 02:28:24;;;;;;;;;4.25;4.25;;;;;20.77;52.40;100557.31;5020790;28;48641;-70
2023/07/03 02:30:50;;;;;;;;;4.00;4.00;;;;;20.80;52.43;100557.91;5021078;28;45797;-67
2023/07/03 02:33:15;;;;;;;;;4.00;4.00;;;;;20.77;52.76;100552.81;5040337;28;45381;-72
2023/07/03 02:35:41;;;;;;;;;2.25;2.25;;;;;20.77;52.84;100550.13;5039431;28;45601;-68
2023/07/03 02:38:08;;;;;;;;;4.25;4.25;;;;;20.75;53.12;100546.75;5038498;28;46338;-65
2023/07/03 02:40:34;;;;;;;;;6.00;6.00;;;;;20.68;53.49;100526.84;5037764;28;45375;-68
2023/07/03 02:43:00;;;;;;;;;5.00;5.00;;;;;20.79;53.11;100544.69;5037067;28;45394;-70
2023/07/03 02:45:25;;;;;;;;;3.25;3.25;;;;;20.75;53.36;100544.06;5037153;28;45524;-66
2023/07/03 02:47:50;;;;;;;;;4.25;4.25;;;;;20.74;53.39;100539.69;5037226;28;45405;-69
2023/07/03 02:50:16;;;;;;;;;8.00;6.75;;;;;20.75;53.71;100535.22;5019075;28;45248;-67
2023/07/03 02:52:41;;;;;;;;;5.50;5.50;;;;;20.78;53.46;100545.66;5037495;28;45406;-73
2023/07/03 02:55:08;;;;;;;;;4.00;4.00;;;;;20.77;53.96;100546.63;5020426;28;45224;-68
2023/07/03 02:57:33;;;;;;;;;4.75;4.75;;;;;20.73;54.13;100556.72;5038986;28;45529;-68
2023/07/03 02:59:58;;;;;;;;;5.00;5.00;;;;;20.63;54.01;100548.59;5040225;28;44870;-66
2023/07/03 03:02:24;;;;;;;;;6.50;6.50;;;;;20.48;54.03;100541.88;5037290;28;60826;-66
2023/07/03 03:04:49;;;;;;;;;6.00;6.00;;;;;20.58;54.00;100551.66;5038286;28;45521;-67
2023/07/03 03:07:15;;;;;;;;;5.75;5.75;;;;;20.55;54.73;100548.38;5036882;28;46328;-67
2023/07/03 03:09:40;;;;;;;;;5.00;5.00;;;;;20.60;54.18;100546.19;5037655;28;45457;-66
2023/07/03 03:12:07;;;;;;;;;5.75;5.75;;;;;20.64;54.34;100552.13;5038316;28;45419;-69
2023/07/03 03:14:33;;;;;;;;;6.00;6.00;;;;;20.62;54.66;100540.72;5038781;28;45565;-67
2023/07/03 03:16:58;;;;;;;;;4.25;4.25;;;;;20.53;54.11;100532.50;5038003;28;45349;-67
2023/07/03 03:19:23;;;;;;;;;6.50;6.50;;;;;20.60;53.96;100543.50;5039729;28;45407;-69
2023/07/03 03:21:49;;;;;;;;;7.25;7.25;;;;;20.52;54.15;100524.59;5036743;28;45767;-67
2023/07/03 03:24:16;;;;;;;;;6.50;6.50;;;;;20.61;54.07;100541.69;5037669;28;45367;-68
2023/07/03 03:26:41;;;;;;;;;6.25;6.25;;;;;20.52;53.63;100524.59;5037111;28;46166;-67
2023/07/03 03:29:06;;;;;;;;;5.00;5.00;;;;;20.21;53.85;100487.94;5037020;28;45341;-67
2023/07/03 03:31:32;;;;;;;;;7.00;7.00;;;;;20.47;54.02;100533.00;5036586;28;45375;-66
2023/07/03 03:33:57;;;;;;;;;7.00;7.00;;;;;20.50;53.90;100527.41;5036876;28;45557;-68
2023/07/03 03:36:22;;;;;;;;;7.00;7.00;;;;;20.49;53.80;100536.41;5036319;28;45422;-67
2023/07/03 03:38:48;;;;;;;;;6.00;6.00;;;;;20.47;53.72;100538.34;5036600;28;45186;-68
2023/07/03 03:41:14;;;;;;;;;9.00;9.00;;;;;20.30;54.13;100513.03;5037385;28;45262;-66
2023/07/03 03:43:39;;;;;;;;;8.25;8.25;;;;;20.44;54.23;100541.28;5038195;28;45205;-67
2023/07/03 03:46:05;;;;;;;;;7.00;7.00;;;;;20.28;54.16;100507.84;5039604;28;45946;-70
2023/07/03 03:48:30;;;;;;;;;10.25;9.00;;;;;20.37;53.98;100522.22;5039903;28;45175;-70
2023/07/03 03:50:56;;;;;;;;;12.00;10.50;;;;;20.47;54.12;100542.84;5037844;28;45332;-69
2023/07/03 03:53:23;;;;;;;;;7.50;7.50;;;;;20.47;54.84;100530.34;5040184;28;45499;-66
2023/07/03 03:55:52;;;;;;;;;7.75;7.75;;;;;20.49;54.63;100531.06;5037880;28;45424;-66
2023/07/03 03:58:19;;;;;;;;;10.25;10.25;;;;;20.47;55.10;100541.03;5038317;28;45210;-67
2023/07/03 04:00:45;;;;;;;;;8.00;8.00;;;;;20.42;55.14;100532.56;5021960;28;45253;-68
2023/07/03 04:03:11;;;;;;;;;8.00;8.00;;;;;20.46;55.04;100547.34;5044624;28;45250;-67
2023/07/03 04:05:37;;;;;;;;;7.50;7.50;;;;;20.45;55.24;100537.63;5042599;28;45209;-67
2023/07/03 04:08:02;;;;;;;;;8.00;8.00;;;;;20.54;55.04;100544.03;5037720;28;45353;-71
2023/07/03 04:10:28;;;;;;;;;9.75;9.25;;;;;20.57;55.47;100541.09;5036086;28;45339;-72
2023/07/03 04:12:54;;;;;;;;;8.75;8.00;;;;;20.55;55.42;100538.56;5036421;28;45693;-66
2023/07/03 04:15:22;;;;;;;;;6.50;6.50;;;;;20.54;55.18;100536.88;5035978;28;46305;-68
2023/07/03 04:17:47;;;;;;;;;8.25;8.25;;;;;20.61;55.46;100541.69;5035581;28;45241;-64
2023/07/03 04:20:15;;;;;;;;;7.50;7.50;;;;;20.62;55.53;100538.88;5039634;28;51251;-68
2023/07/03 04:22:41;;;;;;;;;5.00;5.00;;;;;20.52;55.69;100525.47;5047419;28;45347;-73
2023/07/03 04:25:08;;;;;;;;;8.25;8.00;;;;;20.57;55.85;100538.44;5045351;28;45420;-67
2023/07/03 04:27:33;;;;;;;;;7.75;7.75;;;;;20.62;55.69;100543.41;5044064;28;45443;-65
2023/07/03 04:29:59;;;;;;;;;7.00;7.00;;;;;20.61;56.23;100549.72;5044262;28;45347;-68
2023/07/03 04:32:24;;;;;;;;;6.50;6.50;;;;;20.64;56.51;100542.28;5043111;28;45361;-68
2023/07/03 04:34:49;;;;;;;;;7.25;6.00;;;;;20.65;56.42;100540.47;5042695;28;45441;-68
2023/07/03 04:37:15;;;;;;;;;6.75;6.75;;;;;20.68;56.49;100543.75;5042964;28;45386;-70
2023/07/03 04:39:40;;;;;;;;;8.00;8.00;;;;;20.67;56.37;100536.69;5042855;28;45446;-66
2023/07/03 04:42:07;;;;;;;;;7.25;7.25;;;;;20.73;56.52;100528.16;5042351;28;45399;-66
2023/07/03 04:44:33;;;;;;;;;2.00;1.75;;;;;20.75;56.46;100536.03;5041756;28;46035;-71
2023/07/03 04:47:04;;;;;;;;;7.00;7.00;;;;;20.79;56.53;100532.16;5042450;28;45400;-79
2023/07/03 04:49:30;;;;;;;;;7.75;7.75;;;;;20.81;56.33;100532.88;5047483;28;45331;-71
2023/07/03 04:51:56;;;;;;;;;8.00;8.00;;;;;20.79;56.55;100532.16;5027892;28;45336;-74
2023/07/03 04:54:22;;;;;;;;;6.25;6.25;;;;;20.92;56.58;100531.97;5042715;28;46287;-77
2023/07/03 04:56:48;;;;;;;;;7.75;7.75;;;;;20.93;55.87;100532.81;5042704;28;45267;-77
2023/07/03 04:59:14;;;;;;;;;9.50;7.50;;;;;20.86;55.80;100511.94;5043108;28;45289;-69
2023/07/03 05:01:44;;;;;;;;;6.50;6.50;;;;;20.97;55.46;100534.25;5041674;28;45141;-69
2023/07/03 05:04:10;;;;;;;;;8.50;8.50;;;;;20.99;55.45;100538.50;5040976;28;47151;-65
2023/07/03 05:06:36;;;;;;;;;6.50;6.50;;;;;20.99;55.40;100538.50;5040962;28;45331;-68
2023/07/03 05:09:02;;;;;;;;;7.75;7.75;;;;;21.07;55.49;100537.84;5023067;28;45415;-66
2023/07/03 05:11:29;;;;;;;;;7.00;7.00;;;;;21.13;54.86;100539.16;5023584;28;45428;-70
2023/07/03 05:13:55;;;;;;;;;6.00;6.00;;;;;21.16;55.14;100536.22;5041315;28;45719;-66
2023/07/03 05:16:20;;;;;;;;;7.75;6.00;;;;;21.24;55.04;100532.88;5023027;28;45367;-66
2023/07/03 05:18:45;;;;;;;;;11.25;11.25;;;;;21.22;55.20;100516.13;5041472;28;45345;-66
2023/07/03 05:21:11;;;;;;;;;6.00;6.00;;;;;21.26;55.26;100529.09;5041311;28;45440;-67
2023/07/03 05:23:37;;;;;;;;;9.00;7.75;;;;;21.33;55.36;100529.41;5041086;28;45225;-67
2023/07/03 05:26:03;;;;;;;;;6.75;6.75;;;;;21.39;55.17;100534.22;5041187;28;45381;-68
2023/07/03 05:28:29;;;;;;;;;6.50;6.50;;;;;21.43;55.43;100537.47;5023443;28;45457;-68
2023/07/03 05:30:56;;;;;;;;;6.00;6.00;;;;;21.40;55.32;100545.75;5040606;28;45537;-72
2023/07/03 05:33:23;;;;;;;;;6.25;6.25;;;;;21.37;55.15;100546.91;5040546;28;45455;-70
2023/07/03 05:35:48;;;;;;;;;8.25;8.25;;;;;21.35;55.13;100546.19;5042616;28;45242;-69
2023/07/03 05:38:14;;;;;;;;;3.00;3.00;;;;;21.34;54.52;100544.50;5048580;28;45760;-66
2023/07/03 05:40:39;;;;;;;;;11.25;11.25;;;;;21.41;53.37;100542.97;5046020;28;45227;-70
2023/07/03 05:43:04;;;;;;;;;3.25;3.25;;;;;21.48;52.54;100540.59;5040950;28;45841;-72
2023/07/03 05:45:30;;;;;;;;;4.25;4.25;;;;;21.55;53.17;100524.84;5040282;28;45363;-69
2023/07/03 05:47:55;;;;;;;;;9.50;9.50;;;;;21.65;53.30;100532.94;5039159;28;45229;-70
2023/07/03 05:50:20;;;;;;;;;7.50;7.50;;;;;21.82;53.28;100526.09;5039090;28;45364;-68
2023/07/03 05:52:46;;;;;;;;;8.25;8.25;;;;;21.93;52.77;100527.84;5038733;28;51740;-67
2023/07/03 05:55:11;;;;;;;;;7.00;7.00;;;;;22.04;52.15;100530.41;5039056;28;45276;-67
2023/07/03 05:57:37;;;;;;;;;6.75;6.75;;;;;22.13;51.79;100524.22;5040961;28;45271;-74
2023/07/03 06:00:12;;;;;;;;;5.75;5.75;;;;;22.10;50.97;100510.22;5044822;28;45331;-68
2023/07/03 06:02:38;;;;;;;;;3.50;3.50;;;;;21.89;50.58;100477.25;5038665;28;45383;-74
2023/07/03 06:05:04;;;;;;;;;4.00;4.00;;;;;22.24;49.92;100541.13;5040168;28;45404;-74
2023/07/03 06:07:29;;;;;;;;;6.75;6.75;;;;;22.19;50.09;100544.22;5022604;28;45297;-69
2023/07/03 06:09:54;;;;;;;;;4.75;4.75;;;;;22.18;50.36;100535.34;5045821;28;45543;-76
2023/07/03 06:12:20;;;;;;;;;4.25;4.25;;;;;22.31;50.62;100540.47;5027149;28;47414;-76
2023/07/03 06:14:45;;;;;;;;;6.25;6.25;;;;;22.46;50.43;100530.19;5047078;28;45352;-75
2023/07/03 06:17:11;;;;;;;;;5.50;5.50;;;;;22.63;50.17;100541.19;5026117;28;45383;-72
2023/07/03 06:19:36;;;;;;;;;7.00;7.00;;;;;22.76;50.19;100549.78;5049024;28;45558;-79
2023/07/03 06:22:01;;;;;;;;;7.75;7.75;;;;;22.96;49.76;100555.16;5043995;28;46109;-80
2023/07/03 06:24:27;;;;;;;;;5.00;5.00;;;;;23.20;49.41;100549.28;5046002;28;44686;-73
2023/07/03 06:26:53;;;;;;;;;6.50;6.50;;;;;23.37;49.12;100541.53;5047824;28;45229;-74
2023/07/03 06:29:19;;;;;;;;;7.00;7.00;;;;;23.60;48.71;100543.84;5040904;28;45270;-79
2023/07/03 06:31:44;;;;;;;;;6.00;6.00;;;;;23.67;48.16;100544.94;5039192;28;45340;-77
2023/07/03 06:34:09;;;;;;;;;5.25;5.25;;;;;23.65;47.95;100541.56;5039859;28;45353;-76
2023/07/03 06:36:35;;;;;;;;;5.25;5.25;;;;;23.46;47.64;100526.38;5026010;28;45336;-75
2023/07/03 06:39:04;;;;;;;;;5.00;5.00;;;;;23.42;48.14;100554.50;5046097;28;45272;-71
2023/07/03 06:41:31;;;;;;;;;7.00;7.00;;;;;23.27;48.07;100554.97;5040099;28;45403;-76
2023/07/03 06:43:57;;;;;;;;;8.00;8.00;;;;;23.24;48.42;100536.47;5023542;28;45346;-74
2023/07/03 06:46:23;;;;;;;;;5.00;5.00;;;;;23.39;48.27;100544.91;5020882;28;45472;-74
2023/07/03 06:48:49;;;;;;;;;5.00;5.00;;;;;23.49;48.31;100539.50;5020232;28;45260;-71
2023/07/03 06:51:14;;;;;;;;;7.00;7.00;;;;;23.64;47.78;100542.56;5018583;28;48201;-66
2023/07/03 06:53:41;;;;;;;;;7.50;6.75;;;;;23.41;47.08;100499.13;5036696;28;45317;-69
2023/07/03 06:56:08;;;;;;;;;7.25;7.25;;;;;23.75;46.87;100545.03;5036534;28;45455;-67
2023/07/03 06:58:34;;;;;;;;;6.00;6.00;;;;;23.96;46.54;100543.94;5036579;28;45894;-66
2023/07/03 07:01:11;;;;;;;;;3.75;3.75;;;;;24.20;46.35;100542.53;5036624;28;46032;-68
2023/07/03 07:03:38;;;;;;;;;5.75;5.75;;;;;24.23;46.34;100546.78;5039981;28;45390;-73
2023/07/03 07:06:16;;;;;;;;;5.25;5.25;;;;;24.40;45.57;100540.56;5050196;28;45310;-72
2023/07/03 07:08:43;;;;;;;;;6.00;6.00;;;;;24.68;45.13;100540.47;5039981;28;45432;-76
2023/07/03 07:11:13;;;;;;;;;4.50;4.50;;;;;24.77;45.03;100549.50;5037781;28;46016;-68
2023/07/03 07:13:40;;;;;;;;;4.50;4.50;;;;;24.69;44.88;100542.16;5037049;28;45460;-75
2023/07/03 07:16:12;;;;;;;;;2.75;2.75;;;;;24.65;44.47;100549.72;5020290;28;45359;-78
2023/07/03 07:18:37;;;;;;;;;14.25;14.25;;;;;24.61;45.32;100525.97;5019666;28;45296;-69
2023/07/03 07:21:02;;;;;;;;;7.75;7.75;;;;;24.89;44.77;100550.06;5038058;28;46139;-71
2023/07/03 07:23:28;;;;;;;;;8.25;7.75;;;;;25.12;45.26;100557.66;5039067;28;44794;-69
2023/07/03 07:25:54;;;;;;;;;7.00;7.00;;;;;25.31;44.73;100557.44;5037732;28;45269;-74
2023/07/03 07:28:20;;;;;;;;;6.50;6.00;;;;;25.43;44.52;100557.19;5020271;28;45317;-74
2023/07/03 07:30:45;;;;;;;;;8.00;7.75;;;;;25.49;43.97;100552.03;5038376;28;45293;-73
2023/07/03 07:33:11;;;;;;;;;7.25;7.25;;;;;25.53;44.39;100563.31;5037388;28;45165;-75
2023/07/03 07:35:37;;;;;;;;;6.00;6.00;;;;;25.69;44.44;100550.94;5040443;28;45224;-79
2023/07/03 07:38:02;;;;;;;;;6.50;6.50;;;;;26.00;43.87;100553.09;5037254;28;45366;-73
2023/07/03 07:40:28;;;;;;;;;6.25;6.25;;;;;26.14;43.70;100556.97;5036347;28;45749;-69
2023/07/03 07:42:53;;;;;;;;;11.50;11.50;;;;;26.15;43.20;100551.47;5018519;28;45427;-74
2023/07/03 07:45:18;;;;;;;;;12.50;12.50;;;;;26.09;43.18;100561.00;5036729;28;45354;-72
2023/07/03 07:47:44;;;;;;;;;6.75;6.00;;;;;25.82;43.00;100548.63;5037706;28;45644;-68
2023/07/03 07:50:09;;;;;;;;;5.50;5.50;;;;;25.38;43.35;100536.09;5040630;28;45485;-74
2023/07/03 07:52:35;;;;;;;;;6.00;6.00;;;;;25.47;43.38;100570.19;5038242;28;45420;-68
2023/07/03 07:55:00;;;;;;;;;5.00;5.00;;;;;25.44;43.50;100564.25;5036379;28;45342;-69
2023/07/03 07:57:28;;;;;;;;;8.75;8.00;;;;;25.49;43.84;100576.28;5037263;28;45316;-71
2023/07/03 07:59:53;;;;;;;;;5.75;5.75;;;;;25.45;43.16;100553.38;5036611;28;46277;-73
2023/07/03 08:02:19;;;;;;;;;10.75;10.75;;;;;25.50;43.65;100561.81;5037129;28;45238;-70
2023/07/03 08:04:44;;;;;;;;;6.00;4.25;;;;;25.71;43.41;100570.47;5036804;28;45252;-70
2023/07/03 08:07:10;;;;;;;;;7.25;7.25;;;;;25.75;43.42;100567.31;5037513;28;45449;-74
2023/07/03 08:09:35;;;;;;;;;4.50;4.50;;;;;25.87;43.54;100564.31;5036256;28;45399;-79
2023/07/03 08:12:02;;;;;;;;;5.00;5.00;;;;;25.95;43.17;100561.66;5035318;28;45273;-70
2023/07/03 08:14:28;;;;;;;;;5.25;5.25;;;;;26.07;43.31;100557.63;5036272;28;45545;-69
2023/07/03 08:16:53;;;;;;;;;6.25;6.25;;;;;26.12;42.94;100565.25;5036673;28;45530;-72
2023/07/03 08:19:19;;;;;;;;;4.75;4.75;;;;;25.96;43.08;100560.63;5017474;28;46535;-74
2023/07/03 08:21:44;;;;;;;;;5.75;5.75;;;;;25.87;43.12;100562.44;5035620;28;45458;-70
2023/07/03 08:24:09;;;;;;;;;6.50;6.50;;;;;25.87;43.37;100569.69;5036333;28;45328;-71
2023/07/03 08:26:35;;;;;;;;;5.50;5.00;;;;;25.90;43.19;100564.81;5035907;28;45398;-77
2023/07/03 08:29:00;;;;;;;;;8.00;8.00;;;;;25.79;42.73;100573.19;5035704;28;45333;-68
2023/07/03 08:31:26;;;;;;;;;10.25;10.25;;;;;25.54;42.65;100554.22;5035489;28;45391;-72
2023/07/03 08:33:52;;;;;;;;;8.00;8.00;;;;;25.59;42.29;100575.31;5035353;28;48450;-66
2023/07/03 08:36:17;;;;;;;;;6.75;6.75;;;;;25.54;41.88;100572.25;5038320;28;45550;-70
2023/07/03 08:38:43;;;;;;;;;7.75;6.25;;;;;25.55;42.21;100576.63;5036640;28;45309;-67
2023/07/03 08:41:13;;;;;;;;;5.50;5.50;;;;;25.49;42.61;100570.03;5034983;28;51335;-68
2023/07/03 08:43:42;;;;;;;;;7.50;7.50;;;;;25.46;42.25;100567.66;5017394;28;45393;-78
2023/07/03 08:46:17;;;;;;;;;6.75;5.75;;;;;25.54;42.77;100567.69;5035972;28;45302;-73
2023/07/03 08:48:45;;;;;;;;;6.50;6.50;;;;;25.64;42.10;100559.50;5035732;28;46397;-71
2023/07/03 08:51:14;;;;;;;;;7.25;7.25;;;;;25.73;42.03;100577.41;5035999;28;45731;-72
2023/07/03 08:53:43;;;;;;;;;7.25;7.25;;;;;25.61;41.95;100576.00;5035882;28;45310;-80
2023/07/03 08:56:23;;;;;;;;;3.50;3.50;;;;;25.60;41.84;100577.81;5036809;28;45529;-76
2023/07/03 08:58:53;;;;;;;;;7.75;7.75;;;;;25.49;41.73;100576.28;5020672;28;47385;-80
2023/07/03 09:01:20;;;;;;;;;11.00;11.00;;;;;25.32;42.37;100580.69;5019995;28;45372;-77
2023/07/03 09:04:00;;;;;;;;;7.75;7.75;;;;;25.16;42.77;100580.56;5037932;28;45466;-75
2023/07/03 09:06:40;;;;;;;;;8.00;7.25;;;;;24.90;42.71;100582.22;5038773;28;45490;-73
2023/07/03 09:09:14;;;;;;;;;5.50;5.00;;;;;24.68;43.36;100577.28;5024879;28;46098;-73
2023/07/03 09:11:46;;;;;;;;;7.50;7.50;;;;;24.61;43.68;100585.13;5044944;28;45261;-74
2023/07/03 09:14:21;;;;;;;;;6.50;6.50;;;;;24.28;44.05;100582.09;5039720;28;45335;-77
2023/07/03 09:16:47;;;;;;;;;2.00;2.00;;;;;23.99;44.65;100581.25;5021240;28;45383;-77
2023/07/03 09:19:21;;;;;;;;;7.75;7.75;;;;;23.85;45.18;100595.19;5040405;28;45285;-74
2023/07/03 09:21:51;;;;;;;;;7.50;7.50;;;;;23.81;45.27;100585.72;5027239;28;45518;-74
2023/07/03 09:24:27;;;;;;;;;7.75;7.75;;;;;23.97;45.38;100585.94;5039963;28;45356;-67
2023/07/03 09:26:59;;;;;;;;;9.50;9.50;;;;;24.12;45.15;100583.63;5038673;28;45329;-79
2023/07/03 09:29:26;;;;;;;;;7.50;7.50;;;;;24.42;44.99;100568.13;5038619;28;45309;-70
2023/07/03 09:31:54;;;;;;;;;14.75;14.75;;;;;25.07;44.58;100587.72;5038332;28;45229;-77
2023/07/03 09:34:19;;;;;;;;;6.25;6.25;;;;;25.65;43.60;100571.97;5021973;28;45547;-67
2023/07/03 09:36:57;;;;;;;;;6.50;6.50;;;;;26.15;42.99;100578.44;5041084;28;45311;-70
2023/07/03 09:39:23;;;;;;;;;13.25;13.25;;;;;26.50;42.32;100572.91;5041742;28;46961;-70
2023/07/03 09:41:48;;;;;;;;;8.75;8.75;;;;;26.63;41.43;100583.22;5042494;28;51452;-70
2023/07/03 09:44:17;;;;;;;;;12.75;12.75;;;;;26.89;41.13;100560.66;5043469;28;49515;-72
2023/07/03 09:46:43;;;;;;;;;6.25;6.25;;;;;27.17;40.61;100571.09;5041281;28;45232;-68
2023/07/03 09:49:28;;;;;;;;;6.25;6.25;;;;;26.97;40.11;100575.00;5040561;28;46400;-71
2023/07/03 09:51:56;;;;;;;;;7.00;7.00;;;;;26.83;40.46;100581.06;5039971;28;44785;-71
2023/07/03 09:54:28;;;;;;;;;6.25;6.25;;;;;26.87;40.14;100571.63;5040026;28;45349;-78
2023/07/03 09:56:55;;;;;;;;;8.25;8.25;;;;;27.10;40.20;100573.63;5040352;28;45373;-77
2023/07/03 09:59:24;;;;;;;;;4.75;4.75;;;;;27.22;39.71;100576.84;5022225;28;47439;-74
2023/07/03 10:01:55;;;;;;;;;7.25;7.25;;;;;27.17;39.39;100577.34;5039390;28;45331;-69
2023/07/03 10:04:20;;;;;;;;;7.50;7.00;;;;;27.15;39.51;100576.66;5022304;28;45307;-67
2023/07/03 10:07:06;;;;;;;;;6.25;6.25;;;;;26.89;39.73;100569.59;5040797;28;45390;-73
2023/07/03 10:09:38;;;;;;;;;5.25;5.25;;;;;26.91;39.67;100574.81;5039281;28;46108;-68
2023/07/03 10:12:11;;;;;;;;;8.50;8.50;;;;;27.20;39.56;100582.38;5038789;28;45308;-68
2023/07/03 10:15:06;;;;;;;;;7.25;7.25;;;;;27.43;38.93;100592.47;5039034;28;45292;-69
2023/07/03 10:17:48;;;;;;;;;7.00;7.00;;;;;27.16;38.87;100594.53;5038767;28;45631;-69
2023/07/03 10:20:20;;;;;;;;;5.00;5.00;;;;;26.98;39.28;100597.41;5039112;28;45458;-70
2023/07/03 10:22:46;;;;;;;;;5.00;5.00;;;;;27.09;39.00;100590.84;5038450;28;45410;-66
2023/07/03 10:25:18;;;;;;;;;5.00;5.00;;;;;27.37;38.83;100596.72;5020177;28;45440;-68
2023/07/03 10:27:47;;;;;;;;;8.00;8.00;;;;;27.41;38.31;100581.84;5038229;28;45316;-69
2023/07/03 10:30:15;;;;;;;;;8.00;8.00;;;;;27.68;38.39;100595.16;5037628;28;48384;-68
2023/07/03 10:32:45;;;;;;;;;2.25;2.25;;;;;28.00;37.91;100602.25;5037786;28;45357;-73
2023/07/03 10:35:32;;;;;;;;;7.00;7.00;;;;;28.25;37.49;100609.44;5038714;28;45311;-72
2023/07/03 10:38:35;;;;;;;;;7.00;7.00;;;;;28.19;36.63;100596.63;5038051;28;45442;-69
2023/07/03 10:41:34;;;;;;;;;8.50;8.50;;;;;28.09;37.08;100596.81;4995217;28;45533;-74
2023/07/03 10:44:07;;;;;;;;;10.00;10.00;;;;;28.26;36.44;100600.31;5038462;28;45365;-68
2023/07/03 10:46:41;;;;;;;;;12.75;12.75;;;;;28.04;36.58;100586.53;5039061;28;45256;-67
2023/07/03 10:49:14;;;;;;;;;7.50;7.50;;;;;27.95;36.50;100595.72;5021979;28;45394;-69
2023/07/03 10:51:40;;;;;;;;;7.75;7.75;;;;;27.76;36.85;100588.84;5040291;28;45546;-70
2023/07/03 10:54:15;;;;;;;;;9.50;9.50;;;;;27.84;36.95;100583.41;5039138;28;45395;-70
2023/07/03 10:56:47;;;;;;;;;7.25;7.25;;;;;27.88;37.17;100587.44;5020463;28;45295;-71
2023/07/03 10:59:34;;;;;;;;;7.25;7.25;;;;;27.67;36.68;100564.56;5038268;28;45319;-71
2023/07/03 11:02:26;;;;;;;;;8.75;8.75;;;;;28.04;36.79;100580.28;5019627;28;48409;-70
2023/07/03 11:05:04;;;;;;;;;4.25;4.25;;;;;28.04;35.96;100580.28;5020111;28;45404;-71
2023/07/03 11:07:48;;;;;;;;;5.25;5.25;;;;;27.58;34.90;100570.19;5038331;28;45465;-67
2023/07/03 11:10:22;;;;;;;;;4.75;4.75;;;;;27.10;34.69;100589.84;5037301;28;45499;-73
2023/07/03 11:12:47;;;;;;;;;8.00;8.00;;;;;27.04;34.82;100582.41;5037626;28;47920;-73
2023/07/03 11:15:18;;;;;;;;;3.75;3.75;;;;;27.12;34.24;100588.66;5038475;28;45438;-72
2023/07/03 11:18:03;;;;;;;;;5.50;5.50;;;;;27.16;34.48;100583.75;5038047;28;45340;-76
2023/07/03 11:21:09;;;;;;;;;6.50;6.50;;;;;27.05;33.32;100582.25;5037095;28;45270;-74
2023/07/03 11:24:05;;;;;;;;;6.75;6.75;;;;;27.16;33.30;100575.66;5030972;28;46152;-73
2023/07/03 11:26:37;;;;;;;;;4.00;4.00;;;;;27.05;32.87;100574.16;5038364;28;45385;-74
2023/07/03 11:29:06;;;;;;;;;4.00;4.00;;;;;26.93;32.25;100562.84;5037768;28;45329;-78
2023/07/03 11:31:32;;;;;;;;;6.25;6.25;;;;;27.08;32.27;100579.22;5038380;28;45336;-71